Time;durP1;ratioP1;P1;durP2;ratioP2;P2;SDS_P1;SDS_P2;PMS_P1;PMS_P2;Temp;Humidity;BMP_temperature;BMP_pressure;BME280_temperature;BME280_humidity;BME280_pressure;Samples;Min_cycle;Max_cycle;Signal;HPM_P1;HPM_P2
2022/10/04 00:00:27;;;;;;;23.60;12.77;;;11.20;99.90;;;;;;5039563;28;20608;-72
2022/10/04 00:03:00;;;;;;;21.13;11.38;;;11.30;99.90;;;;;;5038597;28;20391;-72
2022/10/04 00:05:27;;;;;;;22.85;11.82;;;11.30;99.90;;;;;;5036004;28;20851;-71
2022/10/04 00:08:00;;;;;;;20.42;10.50;;;11.30;99.90;;;;;;5036266;28;20391;-72
2022/10/04 00:10:30;;;;;;;25.60;11.43;;;11.40;99.90;;;;;;5036054;28;20868;-70
2022/10/04 00:12:58;;;;;;;21.20;12.07;;;11.40;99.90;;;;;;5035045;28;20403;-71
2022/10/04 00:15:33;;;;;;;23.27;12.68;;;11.40;99.90;;;;;;5033757;28;20883;-72
2022/10/04 00:18:10;;;;;;;24.58;13.07;;;11.50;99.90;;;;;;5034170;28;20375;-71
2022/10/04 00:20:52;;;;;;;21.37;10.47;;;11.40;99.90;;;;;;5034943;28;20822;-71
2022/10/04 00:23:23;;;;;;;18.45;10.65;;;11.50;99.90;;;;;;5035768;28;20398;-72
2022/10/04 00:26:04;;;;;;;20.50;12.20;;;11.40;99.90;;;;;;5034754;28;20419;-71
2022/10/04 00:28:36;;;;;;;20.52;10.32;;;11.40;99.90;;;;;;5034474;28;20395;-71
2022/10/04 00:31:23;;;;;;;29.80;14.18;;;11.40;99.90;;;;;;5033662;28;20415;-71
2022/10/04 00:34:15;;;;;;;26.10;12.10;;;11.40;99.90;;;;;;5034384;28;20403;-72
2022/10/04 00:36:54;;;;;;;22.35;11.20;;;11.40;99.90;;;;;;5035431;28;20383;-71
2022/10/04 00:39:33;;;;;;;28.92;11.45;;;11.30;99.90;;;;;;5044315;28;20876;-72
2022/10/04 00:42:08;;;;;;;21.52;11.30;;;11.30;99.90;;;;;;5039071;28;20795;-71
2022/10/04 00:44:40;;;;;;;22.30;12.45;;;11.30;99.90;;;;;;5036300;28;20379;-72
2022/10/04 00:47:31;;;;;;;25.50;13.05;;;11.20;99.90;;;;;;5035127;28;20398;-72
2022/10/04 00:50:20;;;;;;;24.38;11.40;;;11.20;99.90;;;;;;5037977;28;20378;-71
2022/10/04 00:52:55;;;;;;;20.77;11.40;;;11.10;99.90;;;;;;5033522;28;20412;-71
2022/10/04 00:55:34;;;;;;;28.30;10.65;;;11.00;99.90;;;;;;5033037;28;20386;-72
2022/10/04 00:58:04;;;;;;;19.27;10.23;;;11.00;99.90;;;;;;5034419;28;20398;-71
2022/10/04 01:00:34;;;;;;;18.70;10.43;;;11.00;99.90;;;;;;5034660;28;20436;-71
2022/10/04 01:03:14;;;;;;;18.73;11.02;;;10.90;99.90;;;;;;5035088;28;20748;-72
2022/10/04 01:05:44;;;;;;;22.30;11.80;;;10.80;99.90;;;;;;5033891;28;20930;-72
2022/10/04 01:08:17;;;;;;;17.05;10.40;;;10.80;99.90;;;;;;5032439;28;20387;-71
2022/10/04 01:10:55;;;;;;;26.55;12.00;;;10.90;99.90;;;;;;5031946;28;20744;-70
2022/10/04 01:13:28;;;;;;;22.35;13.00;;;10.90;99.90;;;;;;5033306;28;20403;-71
2022/10/04 01:15:59;;;;;;;24.43;12.70;;;10.80;99.90;;;;;;5035209;28;20380;-73
2022/10/04 01:18:25;;;;;;;23.73;12.68;;;10.90;99.90;;;;;;5036607;28;20446;-72
2022/10/04 01:20:58;;;;;;;27.27;13.68;;;10.90;99.90;;;;;;5034285;28;20426;-71
2022/10/04 01:23:33;;;;;;;22.20;11.80;;;10.90;99.90;;;;;;5034138;28;20885;-71
2022/10/04 01:25:59;;;;;;;17.52;10.63;;;10.90;99.90;;;;;;5033944;28;20610;-72
2022/10/04 01:28:25;;;;;;;21.70;11.07;;;10.90;99.90;;;;;;5033456;28;20445;-71
2022/10/04 01:30:51;;;;;;;17.88;9.40;;;10.90;99.90;;;;;;5035659;28;20386;-70
2022/10/04 01:33:18;;;;;;;22.88;12.00;;;10.90;99.90;;;;;;5036349;28;20402;-72
2022/10/04 01:35:43;;;;;;;20.35;11.20;;;11.00;99.90;;;;;;5034518;28;20860;-71
2022/10/04 01:38:10;;;;;;;21.83;12.50;;;11.10;99.90;;;;;;5034646;28;20394;-73
2022/10/04 01:40:52;;;;;;;18.92;10.52;;;11.00;99.90;;;;;;5034848;28;20880;-72
2022/10/04 01:43:26;;;;;;;18.47;11.10;;;11.00;99.90;;;;;;5035167;28;20387;-72
2022/10/04 01:45:57;;;;;;;20.88;11.10;;;11.00;99.90;;;;;;5036050;28;20399;-70
2022/10/04 01:48:28;;;;;;;27.33;13.25;;;11.00;99.90;;;;;;5040150;28;20787;-73
2022/10/04 01:51:03;;;;;;;21.60;11.18;;;11.00;99.90;;;;;;5039785;28;20414;-72
2022/10/04 01:53:32;;;;;;;19.67;11.88;;;10.90;99.90;;;;;;5040715;28;20981;-71
2022/10/04 01:56:06;;;;;;;22.20;12.63;;;10.90;99.90;;;;;;5034356;28;20393;-71
2022/10/04 01:58:41;;;;;;;15.15;10.52;;;10.90;99.90;;;;;;5034431;28;20383;-71
2022/10/04 02:01:16;;;;;;;21.17;11.32;;;10.80;99.90;;;;;;5035107;28;20740;-71
2022/10/04 02:03:51;;;;;;;19.80;11.60;;;10.80;99.90;;;;;;5035730;28;20394;-71
2022/10/04 02:06:17;;;;;;;22.20;11.98;;;10.80;99.90;;;;;;5039631;28;20417;-71
2022/10/04 02:08:49;;;;;;;23.13;12.25;;;10.80;99.90;;;;;;5039935;28;20394;-72
2022/10/04 02:11:20;;;;;;;20.05;10.90;;;10.70;99.90;;;;;;5036889;28;20394;-71
2022/10/04 02:13:49;;;;;;;20.17;11.93;;;10.70;99.90;;;;;;5037402;28;20414;-72
2022/10/04 02:16:16;;;;;;;20.95;10.60;;;10.70;99.90;;;;;;5037224;28;20456;-71
2022/10/04 02:18:43;;;;;;;28.75;12.93;;;10.60;99.90;;;;;;5041636;28;20383;-72
2022/10/04 02:21:10;;;;;;;18.35;11.18;;;10.50;99.90;;;;;;5044882;28;20394;-71
2022/10/04 02:23:38;;;;;;;16.25;11.77;;;10.50;99.90;;;;;;5041625;28;20390;-72
2022/10/04 02:26:08;;;;;;;20.05;12.40;;;10.50;99.90;;;;;;5039477;28;20394;-73
2022/10/04 02:28:35;;;;;;;24.87;12.93;;;10.50;99.90;;;;;;5038108;28;20387;-73
2022/10/04 02:33:49;;;;;;;20.33;11.60;;;10.40;99.90;;;;;;5037672;28;20468;-72
2022/10/04 02:36:16;;;;;;;19.00;12.10;;;10.50;99.90;;;;;;5038206;28;20677;-72
2022/10/04 02:38:52;;;;;;;23.33;13.10;;;10.50;99.90;;;;;;5037810;28;20383;-72
2022/10/04 02:41:30;;;;;;;23.65;13.88;;;10.50;99.90;;;;;;5038297;28;20388;-72
2022/10/04 02:44:14;;;;;;;27.55;15.63;;;10.50;99.90;;;;;;5038017;28;20387;-72
2022/10/04 02:47:04;;;;;;;23.40;12.70;;;10.60;99.90;;;;;;5039484;28;20399;-72
2022/10/04 02:49:53;;;;;;;21.50;12.60;;;10.60;99.90;;;;;;5039838;28;20410;-72
2022/10/04 02:52:28;;;;;;;21.10;13.20;;;10.70;99.90;;;;;;5038788;28;20894;-72
2022/10/04 02:55:05;;;;;;;19.80;12.73;;;10.70;99.90;;;;;;5040402;28;20386;-71
2022/10/04 02:57:33;;;;;;;23.60;12.82;;;10.70;99.90;;;;;;5039804;28;20848;-72
2022/10/04 03:00:14;;;;;;;25.02;13.23;;;10.80;99.90;;;;;;5039053;28;20391;-71
2022/10/04 03:02:40;;;;;;;20.33;11.70;;;10.80;99.90;;;;;;5038587;28;20387;-72
2022/10/04 03:05:09;;;;;;;30.70;13.93;;;10.80;99.90;;;;;;5036797;28;20876;-72
2022/10/04 03:07:37;;;;;;;19.52;11.80;;;10.80;99.90;;;;;;5035970;28;20387;-72
2022/10/04 03:10:09;;;;;;;20.00;11.82;;;10.90;99.90;;;;;;5036978;28;20470;-72
2022/10/04 03:12:36;;;;;;;20.42;13.05;;;10.90;99.90;;;;;;5039752;28;20458;-72
2022/10/04 03:15:02;;;;;;;22.65;12.90;;;11.00;99.90;;;;;;5041704;28;20390;-72
2022/10/04 03:17:28;;;;;;;20.60;12.40;;;10.90;99.90;;;;;;5039498;28;20683;-72
2022/10/04 03:19:56;;;;;;;22.00;13.00;;;10.80;99.90;;;;;;5041559;28;20469;-72
2022/10/04 03:22:22;;;;;;;26.00;14.70;;;10.80;99.90;;;;;;5041246;28;20387;-72
2022/10/04 03:24:53;;;;;;;26.33;14.07;;;10.70;99.90;;;;;;5047651;28;20472;-73
2022/10/04 03:27:30;;;;;;;25.85;11.80;;;10.60;99.90;;;;;;5037892;28;20968;-72
2022/10/04 03:29:58;;;;;;;24.65;13.18;;;10.60;99.90;;;;;;5037952;28;20455;-72
2022/10/04 03:32:24;;;;;;;27.07;14.87;;;10.50;99.90;;;;;;5036150;28;20498;-71
2022/10/04 03:34:55;;;;;;;23.42;13.60;;;10.60;99.90;;;;;;5038031;28;20375;-71
2022/10/04 03:37:21;;;;;;;21.88;13.05;;;10.60;99.90;;;;;;5039553;28;20383;-70
2022/10/04 03:39:49;;;;;;;27.25;13.02;;;10.60;99.90;;;;;;5036671;28;20860;-70
2022/10/04 03:42:18;;;;;;;19.55;13.48;;;10.60;99.90;;;;;;5036384;28;20387;-70
2022/10/04 03:44:50;;;;;;;21.15;12.95;;;10.60;99.90;;;;;;5035961;28;20394;-70
2022/10/04 03:47:23;;;;;;;21.23;13.05;;;10.60;99.90;;;;;;5036950;28;20393;-71
2022/10/04 03:49:49;;;;;;;25.60;14.60;;;10.60;99.90;;;;;;5036671;28;20402;-71
2022/10/04 03:52:33;;;;;;;22.43;12.73;;;10.50;99.90;;;;;;5036074;28;20407;-70
2022/10/04 03:55:02;;;;;;;20.45;12.48;;;10.50;99.90;;;;;;5034460;28;20375;-70
2022/10/04 03:57:29;;;;;;;19.77;12.40;;;10.60;99.90;;;;;;5035653;28;20854;-71
2022/10/04 03:59:56;;;;;;;23.92;13.15;;;10.50;99.90;;;;;;5034957;28;20417;-71
2022/10/04 04:02:45;;;;;;;24.38;13.75;;;10.50;99.90;;;;;;5034697;28;20395;-71
2022/10/04 04:05:31;;;;;;;22.10;12.47;;;10.50;99.90;;;;;;5034073;28;20394;-71
2022/10/04 04:08:11;;;;;;;17.52;11.80;;;10.60;99.90;;;;;;5034291;28;20387;-71
2022/10/04 04:10:42;;;;;;;21.40;13.30;;;10.70;99.90;;;;;;5034387;28;20447;-72
2022/10/04 04:13:10;;;;;;;25.43;12.90;;;10.70;99.90;;;;;;5038175;28;20411;-69
2022/10/04 04:15:42;;;;;;;23.10;11.88;;;10.60;99.90;;;;;;5044050;28;20391;-71
2022/10/04 04:18:18;;;;;;;22.07;11.57;;;10.60;99.90;;;;;;5038435;28;20379;-71
2022/10/04 04:20:44;;;;;;;21.63;12.38;;;10.50;99.90;;;;;;5038262;28;20774;-71
2022/10/04 04:23:13;;;;;;;21.45;10.85;;;10.50;99.90;;;;;;5038258;28;20379;-72
2022/10/04 04:25:44;;;;;;;17.88;11.30;;;10.50;99.90;;;;;;5038774;28;20383;-71
2022/10/04 04:28:35;;;;;;;23.35;12.10;;;10.50;99.90;;;;;;5036096;28;20455;-71
2022/10/04 04:31:08;;;;;;;17.73;11.95;;;10.50;99.90;;;;;;5035437;28;20481;-70
2022/10/04 04:33:47;;;;;;;22.20;12.30;;;10.40;99.90;;;;;;5033641;28;20414;-71
2022/10/04 04:36:15;;;;;;;17.92;11.25;;;10.30;99.90;;;;;;5034318;28;20374;-73
2022/10/04 04:41:32;;;;;;;24.20;12.77;;;10.20;99.90;;;;;;5034267;28;20391;-71
2022/10/04 04:43:58;;;;;;;21.45;12.32;;;10.20;99.90;;;;;;5034476;28;20394;-71
2022/10/04 04:46:24;;;;;;;21.97;13.50;;;10.10;99.90;;;;;;5033036;28;21005;-70
2022/10/04 04:49:02;;;;;;;24.37;13.30;;;10.00;99.90;;;;;;5031356;28;20498;-71
2022/10/04 04:51:30;;;;;;;24.02;13.70;;;10.00;99.90;;;;;;5032405;28;20440;-72
2022/10/04 04:53:56;;;;;;;26.48;14.38;;;10.00;99.90;;;;;;5032401;28;20407;-71
2022/10/04 04:56:26;;;;;;;24.37;13.17;;;9.90;99.90;;;;;;5032269;28;20907;-72
2022/10/04 04:58:54;;;;;;;21.08;13.95;;;10.00;99.90;;;;;;5033122;28;20746;-73
2022/10/04 05:01:34;;;;;;;17.50;11.53;;;9.90;99.90;;;;;;5033901;28;20498;-72
2022/10/04 05:04:08;;;;;;;20.60;12.43;;;9.90;99.90;;;;;;5032593;28;20878;-70
2022/10/04 05:06:36;;;;;;;20.45;12.60;;;9.90;99.90;;;;;;5031604;28;20551;-71
2022/10/04 05:09:04;;;;;;;26.00;13.95;;;9.80;99.90;;;;;;5031839;28;20394;-72
2022/10/04 05:11:36;;;;;;;19.85;12.77;;;9.90;99.90;;;;;;5031458;28;20394;-71
2022/10/04 05:14:10;;;;;;;21.80;12.23;;;9.90;99.90;;;;;;5032263;28;20407;-72
2022/10/04 05:16:49;;;;;;;24.58;12.93;;;9.90;99.90;;;;;;5031600;28;20791;-72
2022/10/04 05:19:26;;;;;;;21.83;12.10;;;10.00;99.90;;;;;;5032046;28;20937;-72
2022/10/04 05:21:54;;;;;;;19.15;11.77;;;10.00;99.90;;;;;;5031523;28;20379;-72
2022/10/04 05:24:27;;;;;;;272.13;180.02;;;10.00;99.90;;;;;;5031914;28;20470;-71
2022/10/04 05:26:57;;;;;;;174.25;97.15;;;10.10;99.90;;;;;;5031668;28;20788;-71
2022/10/04 05:29:26;;;;;;;64.23;34.87;;;10.20;99.90;;;;;;5031426;28;20384;-71
2022/10/04 05:32:20;;;;;;;93.90;51.83;;;10.20;99.90;;;;;;5031349;28;20379;-72
2022/10/04 05:34:48;;;;;;;96.37;52.93;;;10.20;99.90;;;;;;5031318;28;20888;-70
2022/10/04 05:37:52;;;;;;;39.95;19.15;;;10.30;99.90;;;;;;5032232;28;20367;-71
2022/10/04 05:40:34;;;;;;;37.38;19.77;;;10.20;99.90;;;;;;5030517;28;20474;-72
2022/10/04 05:42:59;;;;;;;29.20;16.85;;;10.20;99.90;;;;;;5036338;28;20383;-73
2022/10/04 05:45:28;;;;;;;22.17;12.10;;;10.20;99.90;;;;;;5036151;28;20463;-73
2022/10/04 05:47:59;;;;;;;21.13;11.52;;;10.00;99.90;;;;;;5032412;28;20733;-71
2022/10/04 05:50:35;;;;;;;22.73;12.77;;;9.90;99.90;;;;;;5035557;28;20435;-74
2022/10/04 05:53:23;;;;;;;23.15;13.20;;;9.80;99.90;;;;;;5033757;28;20403;-72
2022/10/04 05:56:11;;;;;;;23.35;13.65;;;9.80;99.90;;;;;;5031156;28;20478;-72
2022/10/04 05:58:48;;;;;;;20.73;12.98;;;9.80;99.90;;;;;;5031109;28;20470;-72
2022/10/04 06:01:20;;;;;;;28.50;14.95;;;9.80;99.90;;;;;;5031466;28;20423;-71
2022/10/04 06:04:15;;;;;;;23.03;12.97;;;9.70;99.90;;;;;;5031477;28;20888;-72
2022/10/04 06:07:10;;;;;;;24.80;14.60;;;9.80;99.90;;;;;;5029775;28;20395;-72
2022/10/04 06:10:10;;;;;;;23.98;14.38;;;9.80;99.90;;;;;;5031334;28;20402;-73
2022/10/04 06:12:56;;;;;;;21.75;14.10;;;9.80;99.90;;;;;;5029297;28;20417;-72
2022/10/04 06:15:43;;;;;;;21.88;14.00;;;9.90;99.90;;;;;;5032324;28;20386;-73
2022/10/04 06:18:33;;;;;;;27.60;15.07;;;9.90;99.90;;;;;;5031383;28;20756;-72
2022/10/04 06:21:20;;;;;;;25.88;15.45;;;9.90;99.90;;;;;;5031415;28;20375;-71
2022/10/04 06:23:55;;;;;;;24.15;14.40;;;10.10;99.90;;;;;;5030836;28;20383;-72
2022/10/04 06:26:34;;;;;;;27.75;14.55;;;10.00;99.90;;;;;;5029676;28;20751;-72
2022/10/04 06:29:05;;;;;;;27.95;15.13;;;10.10;99.90;;;;;;5031326;28;20419;-71
2022/10/04 06:31:43;;;;;;;23.83;12.90;;;10.10;99.90;;;;;;5031475;28;20741;-72
2022/10/04 06:34:25;;;;;;;26.95;12.70;;;10.10;99.90;;;;;;5032402;28;20411;-72
2022/10/04 06:36:53;;;;;;;20.77;12.52;;;10.20;99.90;;;;;;5032057;28;20383;-72
2022/10/04 06:39:36;;;;;;;33.88;14.57;;;10.20;99.90;;;;;;5031069;28;20383;-72
2022/10/04 06:42:32;;;;;;;20.13;11.85;;;10.30;99.90;;;;;;5031013;28;20379;-70
2022/10/04 06:45:08;;;;;;;27.90;13.10;;;10.30;99.90;;;;;;5042535;28;20395;-72
2022/10/04 06:48:08;;;;;;;22.98;11.50;;;10.40;99.90;;;;;;5042304;28;20390;-70
2022/10/04 06:51:11;;;;;;;24.73;14.07;;;10.50;99.90;;;;;;5038350;28;20387;-72
2022/10/04 06:53:48;;;;;;;24.08;13.20;;;10.50;99.90;;;;;;5035320;28;20489;-72
2022/10/04 06:56:17;;;;;;;25.00;14.25;;;10.60;99.90;;;;;;5035507;28;20863;-72
2022/10/04 06:59:01;;;;;;;23.58;14.35;;;10.70;99.90;;;;;;5035062;28;20391;-71
2022/10/04 07:01:37;;;;;;;24.60;13.60;;;10.80;99.90;;;;;;5035277;28;20389;-73
2022/10/04 07:04:30;;;;;;;20.83;13.43;;;11.00;96.40;;;;;;5035523;28;20392;-71
2022/10/04 07:07:23;;;;;;;20.38;12.50;;;11.10;94.00;;;;;;5034444;28;20383;-71
2022/10/04 07:10:07;;;;;;;24.63;13.23;;;11.30;90.30;;;;;;5034325;28;20390;-71
2022/10/04 07:12:37;;;;;;;22.10;12.70;;;11.40;88.50;;;;;;5034345;28;20407;-74
2022/10/04 07:15:15;;;;;;;25.08;13.50;;;11.50;86.80;;;;;;5033229;28;20429;-72
2022/10/04 07:17:44;;;;;;;23.93;12.03;;;11.70;85.90;;;;;;5033019;28;20869;-72
2022/10/04 07:20:22;;;;;;;22.30;12.60;;;11.90;82.30;;;;;;5034129;28;20379;-71
2022/10/04 07:22:54;;;;;;;19.15;11.90;;;12.10;77.90;;;;;;5033123;28;20471;-71
2022/10/04 07:25:26;;;;;;;26.50;13.27;;;12.00;77.30;;;;;;5032748;28;20402;-71
2022/10/04 07:31:02;;;;;;;21.88;11.85;;;12.00;77.10;;;;;;5032447;28;20914;-72
2022/10/04 07:33:31;;;;;;;22.90;12.65;;;12.00;77.40;;;;;;5031854;28;20406;-72
2022/10/04 07:36:10;;;;;;;24.50;13.13;;;12.00;77.50;;;;;;5034289;28;20716;-70
2022/10/04 07:38:50;;;;;;;25.27;14.10;;;12.00;77.70;;;;;;5030753;28;20398;-71
2022/10/04 07:41:36;;;;;;;22.30;14.13;;;12.10;75.50;;;;;;5029123;28;20824;-72
2022/10/04 07:44:27;;;;;;;20.30;13.50;;;12.20;74.70;;;;;;5031114;28;20880;-72
2022/10/04 07:47:18;;;;;;;23.27;14.02;;;12.40;72.30;;;;;;5031696;28;20536;-72
2022/10/04 07:49:43;;;;;;;25.63;13.70;;;12.30;73.60;;;;;;5031669;28;20761;-71
2022/10/04 07:52:18;;;;;;;23.17;15.48;;;12.30;73.60;;;;;;5032886;28;20379;-70
2022/10/04 07:55:01;;;;;;;20.52;12.80;;;12.30;74.30;;;;;;5044723;28;20620;-70
2022/10/04 07:57:36;;;;;;;27.23;15.60;;;12.20;72.80;;;;;;5049307;28;20406;-69
2022/10/04 08:00:16;;;;;;;21.25;13.63;;;12.20;74.10;;;;;;5041508;28;20403;-71
2022/10/04 08:03:07;;;;;;;24.02;12.80;;;12.30;74.20;;;;;;5051927;28;20383;-69
2022/10/04 08:05:37;;;;;;;23.40;13.60;;;12.10;74.90;;;;;;5019964;28;20928;-71
2022/10/04 08:08:47;;;;;;;23.10;13.77;;;12.00;77.20;;;;;;5013822;28;20487;-71
2022/10/04 08:11:27;;;;;;;19.95;14.45;;;12.00;77.80;;;;;;4997616;28;20484;-70
2022/10/04 08:14:37;;;;;;;21.60;13.35;;;12.00;79.00;;;;;;5027852;28;21017;-71
2022/10/04 08:17:21;;;;;;;49.38;21.45;;;12.10;75.90;;;;;;5030154;28;20429;-71
2022/10/04 08:20:13;;;;;;;24.30;13.82;;;12.10;77.10;;;;;;5029574;28;20402;-71
2022/10/04 08:23:26;;;;;;;20.20;12.90;;;12.10;75.50;;;;;;5028961;28;20438;-71
2022/10/04 08:26:23;;;;;;;24.88;13.98;;;12.10;76.20;;;;;;5027365;28;20413;-70
2022/10/04 08:31:55;;;;;;;23.90;15.18;;;12.40;75.00;;;;;;5030072;28;20390;-72
2022/10/04 08:34:43;;;;;;;25.13;13.40;;;12.60;73.70;;;;;;5030155;28;20443;-72
2022/10/04 08:37:26;;;;;;;25.90;14.23;;;12.80;69.00;;;;;;5030427;28;20863;-71
2022/10/04 08:40:32;;;;;;;25.70;13.97;;;13.00;67.40;;;;;;5033929;28;20744;-71
2022/10/04 08:43:15;;;;;;;24.48;14.98;;;13.40;64.10;;;;;;5036952;28;20379;-75
2022/10/04 08:46:03;;;;;;;25.70;13.60;;;13.70;59.40;;;;;;5036879;28;20438;-72
2022/10/04 08:48:50;;;;;;;22.13;12.70;;;14.00;54.50;;;;;;5036197;28;20378;-71
2022/10/04 08:51:24;;;;;;;22.00;14.20;;;14.10;54.00;;;;;;5031746;28;20848;-71
2022/10/04 08:54:26;;;;;;;19.10;13.05;;;14.20;53.80;;;;;;5031271;28;20414;-69
2022/10/04 08:57:27;;;;;;;21.03;13.20;;;14.30;53.00;;;;;;5029107;28;20391;-71
2022/10/04 09:00:04;;;;;;;17.60;12.57;;;14.20;51.50;;;;;;5023464;28;20465;-71
2022/10/04 09:02:46;;;;;;;26.05;13.02;;;14.20;52.70;;;;;;5024997;28;20748;-72
2022/10/04 09:05:59;;;;;;;33.85;19.27;;;14.10;52.70;;;;;;5024555;28;20382;-71
2022/10/04 09:08:43;;;;;;;25.00;14.90;;;14.30;54.80;;;;;;5027707;28;20403;-76
2022/10/04 09:11:30;;;;;;;21.67;13.07;;;14.20;53.90;;;;;;5023373;28;20480;-77
2022/10/04 09:14:33;;;;;;;29.08;18.05;;;14.20;52.30;;;;;;5022618;28;20492;-74
2022/10/04 09:17:20;;;;;;;26.75;15.05;;;14.30;53.40;;;;;;5013092;28;20385;-72
2022/10/04 09:20:08;;;;;;;34.08;16.42;;;14.30;52.70;;;;;;5018753;28;20451;-75
2022/10/04 09:22:48;;;;;;;22.60;13.03;;;14.40;52.10;;;;;;5012012;28;20913;-72
2022/10/04 09:25:38;;;;;;;27.08;13.50;;;14.30;52.30;;;;;;5016781;28;20394;-73
2022/10/04 09:28:38;;;;;;;28.08;14.65;;;14.30;52.00;;;;;;5032013;28;20390;-74
2022/10/04 09:31:04;;;;;;;27.50;16.67;;;14.30;50.40;;;;;;5028141;28;20395;-71
2022/10/04 09:33:45;;;;;;;28.40;15.00;;;14.40;51.50;;;;;;5019405;28;20901;-71
2022/10/04 09:36:31;;;;;;;24.25;14.98;;;14.50;50.20;;;;;;5010559;28;22496;-71
2022/10/04 09:39:12;;;;;;;29.70;14.57;;;14.60;50.00;;;;;;5024393;28;20862;-72
2022/10/04 09:41:46;;;;;;;25.67;13.48;;;14.60;50.20;;;;;;5031110;28;20407;-72
2022/10/04 09:44:49;;;;;;;41.43;21.57;;;14.70;49.60;;;;;;5027931;28;20860;-72
2022/10/04 09:47:30;;;;;;;22.10;11.70;;;14.90;51.40;;;;;;5029635;28;20451;-71
2022/10/04 09:50:53;;;;;;;18.48;11.52;;;15.00;47.20;;;;;;5030839;28;20375;-72
2022/10/04 09:53:45;;;;;;;19.85;11.45;;;15.00;45.10;;;;;;5007091;28;20509;-71
2022/10/04 09:56:40;;;;;;;28.63;16.55;;;15.10;44.80;;;;;;4989202;28;20410;-70
2022/10/04 09:59:55;;;;;;;28.15;14.23;;;15.20;45.40;;;;;;5007810;28;20388;-72
2022/10/04 10:02:42;;;;;;;19.38;12.80;;;15.20;45.60;;;;;;5010298;28;20393;-71
2022/10/04 10:05:47;;;;;;;22.48;12.77;;;15.50;44.60;;;;;;5011098;28;20869;-71
2022/10/04 10:08:35;;;;;;;28.95;15.95;;;15.40;45.00;;;;;;5011148;28;20388;-71
2022/10/04 10:15:11;;;;;;;17.20;10.98;;;15.60;44.10;;;;;;5011293;28;20832;-72
2022/10/04 10:17:56;;;;;;;22.48;12.90;;;15.60;43.30;;;;;;4994605;28;20464;-72
2022/10/04 10:20:42;;;;;;;21.30;12.70;;;15.80;43.10;;;;;;5010971;28;20456;-71
2022/10/04 10:23:50;;;;;;;21.13;11.35;;;15.90;43.10;;;;;;5011070;28;20450;-71
2022/10/04 10:26:27;;;;;;;21.10;11.65;;;16.00;40.70;;;;;;5013962;28;20455;-72
2022/10/04 10:29:22;;;;;;;22.90;10.95;;;16.00;39.10;;;;;;5015211;28;20814;-73
2022/10/04 10:32:15;;;;;;;19.08;11.38;;;16.10;38.80;;;;;;5014285;28;20415;-71
2022/10/04 10:35:14;;;;;;;22.85;10.43;;;16.10;39.50;;;;;;5014671;28;20400;-71
2022/10/04 10:37:58;;;;;;;18.52;9.68;;;16.10;39.40;;;;;;5014487;28;20373;-74
2022/10/04 10:41:01;;;;;;;18.70;10.00;;;16.20;38.70;;;;;;5014887;28;20846;-74
2022/10/04 10:44:20;;;;;;;22.98;12.05;;;16.20;38.20;;;;;;5014940;28;20440;-72
2022/10/04 10:46:57;;;;;;;24.83;12.95;;;16.30;38.90;;;;;;5002278;28;20400;-72
2022/10/04 10:49:29;;;;;;;20.60;10.88;;;16.40;39.60;;;;;;5014427;28;20372;-72
2022/10/04 10:52:24;;;;;;;25.10;15.13;;;16.40;39.40;;;;;;5014292;28;20797;-71
2022/10/04 10:55:18;;;;;;;15.80;9.10;;;16.50;39.60;;;;;;5014581;28;20467;-71
2022/10/04 10:58:04;;;;;;;14.35;9.10;;;16.60;37.90;;;;;;5014236;28;20469;-72
2022/10/04 11:00:42;;;;;;;16.07;8.20;;;16.70;37.20;;;;;;5014795;28;20385;-72
2022/10/04 11:03:35;;;;;;;18.02;9.57;;;16.80;36.30;;;;;;5014565;28;20381;-72
2022/10/04 11:06:13;;;;;;;17.00;8.98;;;17.00;36.10;;;;;;5014428;28;20384;-72
2022/10/04 11:08:57;;;;;;;13.20;6.63;;;17.10;37.10;;;;;;5013811;28;20866;-73
2022/10/04 11:11:41;;;;;;;18.42;9.30;;;17.00;34.80;;;;;;5013789;28;20728;-72
2022/10/04 11:14:25;;;;;;;15.77;7.13;;;17.10;33.70;;;;;;5014014;28;20408;-72
2022/10/04 11:17:05;;;;;;;14.07;7.20;;;17.10;33.40;;;;;;5014502;28;20381;-72
2022/10/04 11:19:53;;;;;;;11.13;6.68;;;17.20;33.20;;;;;;5013909;28;20443;-71
2022/10/04 11:22:43;;;;;;;16.05;8.85;;;17.20;32.90;;;;;;5013642;28;20388;-71
2022/10/04 11:25:38;;;;;;;13.88;7.18;;;17.20;32.70;;;;;;5014220;28;20381;-72
2022/10/04 11:28:14;;;;;;;20.83;10.82;;;17.20;33.30;;;;;;5029264;28;20389;-72
2022/10/04 11:31:22;;;;;;;13.80;7.50;;;17.40;33.90;;;;;;5013344;28;20378;-71
2022/10/04 11:34:11;;;;;;;10.60;5.97;;;17.50;32.80;;;;;;5013608;28;20408;-71
2022/10/04 11:36:43;;;;;;;10.00;6.00;;;17.50;31.30;;;;;;5013557;28;20858;-73
2022/10/04 11:39:46;;;;;;;16.70;7.33;;;17.50;30.60;;;;;;5013996;28;20742;-71
2022/10/04 11:42:29;;;;;;;12.95;6.50;;;17.60;31.00;;;;;;5013377;28;20388;-72
2022/10/04 11:45:02;;;;;;;16.10;6.85;;;17.60;30.30;;;;;;5014118;28;20388;-73
2022/10/04 11:47:38;;;;;;;18.53;8.20;;;17.70;30.80;;;;;;5013772;28;20397;-72
2022/10/04 11:50:41;;;;;;;15.45;6.60;;;17.60;32.30;;;;;;5013419;28;20369;-73
2022/10/04 11:53:28;;;;;;;12.70;5.90;;;17.80;32.30;;;;;;5013269;28;20484;-71
2022/10/04 11:56:15;;;;;;;10.07;6.53;;;17.90;30.10;;;;;;5013266;28;20833;-71
2022/10/04 11:58:47;;;;;;;11.95;6.60;;;17.80;30.90;;;;;;5013046;28;20516;-72
2022/10/04 12:01:40;;;;;;;13.48;7.10;;;17.90;30.40;;;;;;5013020;28;20475;-73
2022/10/04 12:04:30;;;;;;;13.73;7.80;;;17.90;29.90;;;;;;5013242;28;20400;-73
2022/10/04 12:07:11;;;;;;;15.07;7.40;;;17.80;30.20;;;;;;5013768;28;20809;-72
2022/10/04 12:10:06;;;;;;;11.90;7.50;;;17.80;30.50;;;;;;5012459;28;20396;-72
2022/10/04 12:12:53;;;;;;;18.73;10.15;;;17.80;30.10;;;;;;5008685;28;20944;-72
2022/10/04 12:15:35;;;;;;;17.60;8.65;;;17.80;31.10;;;;;;5012990;28;20842;-73
2022/10/04 12:18:42;;;;;;;13.13;8.15;;;18.00;30.10;;;;;;5012332;28;20384;-72
2022/10/04 12:21:49;;;;;;;15.40;7.75;;;18.10;30.50;;;;;;5012539;28;20389;-73
2022/10/04 12:24:33;;;;;;;10.93;7.90;;;18.20;29.60;;;;;;5002539;28;20384;-73
2022/10/04 12:27:31;;;;;;;16.17;8.55;;;18.20;29.50;;;;;;5013053;28;20381;-72
2022/10/04 12:30:32;;;;;;;12.20;6.70;;;18.40;29.70;;;;;;5018253;28;20439;-72
2022/10/04 12:33:31;;;;;;;15.30;8.23;;;18.40;28.90;;;;;;4998689;28;20418;-72
2022/10/04 12:36:23;;;;;;;12.38;6.85;;;18.50;28.70;;;;;;5016886;28;20393;-72
2022/10/04 12:38:53;;;;;;;18.87;7.77;;;18.40;27.90;;;;;;5018236;28;20392;-73
2022/10/04 12:41:38;;;;;;;14.18;6.32;;;18.40;29.10;;;;;;5013022;28;20387;-73
2022/10/04 12:44:22;;;;;;;21.48;11.63;;;18.40;28.20;;;;;;5012528;28;20567;-72
2022/10/04 12:47:25;;;;;;;11.82;7.20;;;18.70;28.30;;;;;;5012669;28;20482;-74
2022/10/04 12:50:10;;;;;;;19.85;8.00;;;18.70;27.80;;;;;;5011400;28;20405;-73
2022/10/04 12:52:50;;;;;;;15.38;7.00;;;18.60;27.30;;;;;;5011881;28;20415;-71
2022/10/04 12:55:49;;;;;;;12.27;6.68;;;18.70;27.50;;;;;;5012408;28;20466;-73
2022/10/04 12:58:42;;;;;;;12.63;6.70;;;18.80;27.30;;;;;;5012829;28;20456;-73
2022/10/04 13:01:28;;;;;;;19.98;9.90;;;18.90;26.90;;;;;;5010553;28;20785;-73
2022/10/04 13:04:04;;;;;;;10.20;5.90;;;19.10;26.10;;;;;;5012021;28;20413;-72
2022/10/04 13:06:29;;;;;;;10.50;5.75;;;19.00;24.60;;;;;;5011683;28;20421;-73
2022/10/04 13:09:29;;;;;;;11.47;5.90;;;18.90;24.40;;;;;;5011844;28;20461;-72
2022/10/04 13:12:21;;;;;;;13.27;6.10;;;18.90;25.10;;;;;;5011377;28;20385;-72
2022/10/04 13:15:10;;;;;;;10.55;6.13;;;19.10;24.90;;;;;;5011228;28;20396;-72
2022/10/04 13:18:00;;;;;;;18.02;6.20;;;19.20;23.80;;;;;;5011266;28;20870;-72
2022/10/04 13:20:50;;;;;;;12.48;7.97;;;19.20;25.40;;;;;;5011432;28;20483;-72
2022/10/04 13:23:32;;;;;;;12.40;6.00;;;19.10;26.20;;;;;;5011950;28;20862;-72
2022/10/04 13:26:29;;;;;;;11.73;6.07;;;19.20;25.10;;;;;;5011966;28;20385;-72
2022/10/04 13:29:31;;;;;;;10.07;6.20;;;19.20;24.40;;;;;;5011525;28;20396;-72
2022/10/04 13:32:30;;;;;;;13.65;7.20;;;19.30;23.90;;;;;;5007591;28;20929;-73
2022/10/04 13:35:15;;;;;;;10.43;5.70;;;19.40;24.50;;;;;;5011920;28;20388;-72
2022/10/04 13:38:23;;;;;;;14.15;6.47;;;19.90;22.10;;;;;;5010715;28;20751;-73
2022/10/04 13:41:02;;;;;;;9.13;5.43;;;20.60;21.70;;;;;;5014212;28;21040;-73
2022/10/04 13:43:52;;;;;;;12.25;6.07;;;21.30;20.00;;;;;;5011550;28;20527;-71
2022/10/04 13:46:26;;;;;;;12.10;6.40;;;21.60;18.40;;;;;;5011203;28;20787;-73
2022/10/04 13:49:01;;;;;;;11.30;5.80;;;22.00;18.20;;;;;;5011348;28;20447;-71
2022/10/04 13:58:07;;;;;;;12.50;6.05;;;22.90;15.60;;;;;;5012001;28;20466;-72
2022/10/04 14:01:10;;;;;;;13.32;5.60;;;22.70;15.30;;;;;;5012081;28;20385;-71